Time;durP1;ratioP1;P1;durP2;ratioP2;P2;SDS_P1;SDS_P2;PMS_P1;PMS_P2;Temp;Humidity;BMP_temperature;BMP_pressure;BME280_temperature;BME280_humidity;BME280_pressure;Samples;Min_cycle;Max_cycle;Signal;HPM_P1;HPM_P2
2022/10/16 00:00:38;;;;;;;;;;;;;;;12.57;87.40;100959.53;5042987;28;20466;-57
2022/10/16 00:03:03;;;;;;;;;;;;;;;12.55;87.93;100965.03;5050007;28;19929;-58
2022/10/16 00:05:29;;;;;;;;;;;;;;;12.55;87.90;100953.56;5048051;28;19925;-58
2022/10/16 00:07:54;;;;;;;;;;;;;;;12.53;88.37;100967.06;5047239;28;20015;-58
2022/10/16 00:10:19;;;;;;;;;;;;;;;12.52;88.44;100959.25;5041539;28;20032;-57
2022/10/16 00:12:44;;;;;;;;;;;;;;;12.50;88.57;100958.59;5043863;28;19917;-57
2022/10/16 00:15:09;;;;;;;;;;;;;;;12.47;88.60;100957.13;5045216;28;19920;-57
2022/10/16 00:17:35;;;;;;;;;;;;;;;12.45;89.08;100953.81;5043221;28;19970;-57
2022/10/16 00:20:00;;;;;;;;;;;;;;;12.45;88.73;100958.31;5046210;28;19917;-57
2022/10/16 00:22:25;;;;;;;;;;;;;;;12.41;89.22;100958.66;5046058;28;19959;-58
2022/10/16 00:24:50;;;;;;;;;;;;;;;12.38;88.88;100958.19;5045939;28;20429;-58
2022/10/16 00:27:16;;;;;;;;;;;;;;;12.36;89.32;100954.88;5044537;28;19929;-57
2022/10/16 00:29:41;;;;;;;;;;;;;;;12.34;89.57;100952.38;5047247;28;20017;-57
2022/10/16 00:32:07;;;;;;;;;;;;;;;12.33;89.32;100963.22;5042451;28;20384;-57
2022/10/16 00:34:32;;;;;;;;;;;;;;;12.32;89.73;100959.72;5026815;28;20460;-59
2022/10/16 00:36:57;;;;;;;;;;;;;;;12.31;89.79;100952.75;5048166;28;19916;-58
2022/10/16 00:39:23;;;;;;;;;;;;;;;12.31;89.96;100958.06;5044665;28;19925;-59
2022/10/16 00:41:48;;;;;;;;;;;;;;;12.30;90.01;100961.75;5045767;28;19936;-58
2022/10/16 00:44:33;;;;;;;;;;;;;;;12.29;89.74;100960.09;5045244;28;20004;-58
2022/10/16 00:46:58;;;;;;;;;;;;;;;12.30;90.04;100955.59;5045868;28;19928;-57
2022/10/16 00:49:23;;;;;;;;;;;;;;;12.30;90.25;100961.75;5047295;28;19982;-57
2022/10/16 00:51:53;;;;;;;;;;;;;;;12.29;90.21;100961.94;5054037;28;20277;-57
2022/10/16 00:54:23;;;;;;;;;;;;;;;12.28;90.19;100957.59;5051993;28;20296;-57
2022/10/16 00:56:49;;;;;;;;;;;;;;;12.26;90.14;100970.28;5052216;28;19923;-58
2022/10/16 00:59:34;;;;;;;;;;;;;;;12.24;90.17;100966.97;5041215;28;19916;-58
2022/10/16 01:02:00;;;;;;;;;;;;;;;12.24;90.30;100966.97;5044249;28;20011;-58
2022/10/16 01:04:26;;;;;;;;;;;;;;;12.24;90.13;100964.31;5044530;28;20050;-58
2022/10/16 01:07:01;;;;;;;;;;;;;;;12.22;90.13;100964.47;5044474;28;19952;-58
2022/10/16 01:09:32;;;;;;;;;;;;;;;12.21;90.71;100949.50;5047183;28;20537;-58
2022/10/16 01:12:05;;;;;;;;;;;;;;;12.23;90.31;100946.66;5044720;28;19968;-57
2022/10/16 01:14:36;;;;;;;;;;;;;;;12.23;90.69;100950.16;5041196;28;19964;-57
2022/10/16 01:17:06;;;;;;;;;;;;;;;12.24;91.00;100956.31;5044175;28;19924;-58
2022/10/16 01:19:46;;;;;;;;;;;;;;;12.23;91.15;100955.50;5045954;28;20652;-58
2022/10/16 01:22:12;;;;;;;;;;;;;;;12.24;91.02;100958.97;5045112;28;19967;-57
2022/10/16 01:24:39;;;;;;;;;;;;;;;12.26;91.51;100970.28;5028736;28;19956;-57
2022/10/16 01:27:13;;;;;;;;;;;;;;;12.26;91.44;100968.44;5044429;28;19936;-57
2022/10/16 01:29:44;;;;;;;;;;;;;;;12.26;91.29;100965.78;5044786;28;19920;-58
2022/10/16 01:32:28;;;;;;;;;;;;;;;12.27;91.35;100956.78;5049490;28;19927;-58
2022/10/16 01:35:02;;;;;;;;;;;;;;;12.28;91.56;100961.09;5045897;28;19971;-59
2022/10/16 01:37:48;;;;;;;;;;;;;;;12.27;91.33;100956.78;5040323;28;19932;-58
2022/10/16 01:40:15;;;;;;;;;;;;;;;12.27;91.75;100950.63;5042305;28;19935;-58
2022/10/16 01:42:44;;;;;;;;;;;;;;;12.26;91.46;100959.63;5047096;28;19925;-57
2022/10/16 01:45:11;;;;;;;;;;;;;;;12.25;91.59;100968.63;5036304;28;19963;-56
2022/10/16 01:47:37;;;;;;;;;;;;;;;12.24;91.39;100974.94;5043841;28;19933;-57
2022/10/16 01:50:04;;;;;;;;;;;;;;;12.23;91.42;100970.63;5037717;28;19917;-57
2022/10/16 01:52:31;;;;;;;;;;;;;;;12.22;91.73;100956.50;5046428;28;20886;-57
2022/10/16 01:54:57;;;;;;;;;;;;;;;12.23;92.04;100957.31;5051549;28;19917;-57
2022/10/16 01:57:23;;;;;;;;;;;;;;;12.24;91.63;100953.66;5050689;28;20395;-58
2022/10/16 01:59:52;;;;;;;;;;;;;;;12.22;91.83;100943.19;5046360;28;19917;-57
2022/10/16 02:02:19;;;;;;;;;;;;;;;12.21;91.60;100967.31;5049311;28;20522;-57
2022/10/16 02:04:49;;;;;;;;;;;;;;;12.21;91.62;100975.31;5052315;28;20012;-58
2022/10/16 02:07:15;;;;;;;;;;;;;;;12.21;91.91;100973.47;5045398;28;19982;-58
2022/10/16 02:09:40;;;;;;;;;;;;;;;12.21;92.05;100972.66;5051224;28;19921;-57
2022/10/16 02:12:13;;;;;;;;;;;;;;;12.20;92.08;100976.31;5053345;28;20640;-58
2022/10/16 02:14:39;;;;;;;;;;;;;;;12.20;92.15;100974.50;5051627;28;19944;-58
2022/10/16 02:17:11;;;;;;;;;;;;;;;12.20;92.42;100973.66;5050771;28;20374;-57
2022/10/16 02:19:36;;;;;;;;;;;;;;;12.22;92.10;100974.31;5052428;28;20011;-59
2022/10/16 02:22:03;;;;;;;;;;;;;;;12.21;92.09;100968.16;5046464;28;20016;-59
2022/10/16 02:24:29;;;;;;;;;;;;;;;12.21;92.24;100972.66;5051235;28;19925;-58
2022/10/16 02:27:01;;;;;;;;;;;;;;;12.21;92.11;100972.66;5051350;28;19924;-58
2022/10/16 02:29:27;;;;;;;;;;;;;;;12.19;91.98;100970.16;5051487;28;19975;-58
2022/10/16 02:31:55;;;;;;;;;;;;;;;12.19;92.29;100964.84;5049379;28;19921;-58
2022/10/16 02:34:21;;;;;;;;;;;;;;;12.17;92.13;100974.03;5050891;28;19917;-57
2022/10/16 02:36:48;;;;;;;;;;;;;;;12.15;92.14;100968.03;5053372;28;20368;-58
2022/10/16 02:39:14;;;;;;;;;;;;;;;12.14;92.28;100963.69;5049553;28;19916;-58
2022/10/16 02:41:39;;;;;;;;;;;;;;;12.12;92.13;100973.69;5057408;28;19970;-57
2022/10/16 02:44:04;;;;;;;;;;;;;;;12.08;92.12;100982.03;5051271;28;20879;-57
2022/10/16 02:46:29;;;;;;;;;;;;;;;12.07;92.09;100980.38;5054285;28;19924;-58
2022/10/16 02:48:55;;;;;;;;;;;;;;;12.06;92.28;100984.06;5050246;28;19925;-57
2022/10/16 02:51:20;;;;;;;;;;;;;;;12.02;92.45;100966.78;5052360;28;19917;-58
2022/10/16 02:53:45;;;;;;;;;;;;;;;12.00;92.48;100966.13;5050517;28;20331;-57
2022/10/16 02:56:10;;;;;;;;;;;;;;;12.00;92.38;100966.13;5049625;28;20402;-58
2022/10/16 02:58:35;;;;;;;;;;;;;;;11.99;92.46;100963.66;5047283;28;20020;-59
2022/10/16 03:01:01;;;;;;;;;;;;;;;11.95;92.61;100955.19;5058037;28;19920;-58
2022/10/16 03:03:26;;;;;;;;;;;;;;;11.94;92.56;100961.53;5050567;28;19956;-58
2022/10/16 03:05:51;;;;;;;;;;;;;;;11.92;92.63;100968.84;5049948;28;20407;-58
2022/10/16 03:08:17;;;;;;;;;;;;;;;11.90;92.60;100968.19;5051380;28;19920;-58
2022/10/16 03:10:42;;;;;;;;;;;;;;;11.88;92.68;100967.56;5048890;28;20003;-57
2022/10/16 03:13:07;;;;;;;;;;;;;;;11.89;92.78;100968.38;5046571;28;19925;-58
2022/10/16 03:15:32;;;;;;;;;;;;;;;11.87;93.01;100976.53;5052109;28;19916;-58
2022/10/16 03:17:58;;;;;;;;;;;;;;;11.87;92.85;100965.91;5047607;28;20457;-58
2022/10/16 03:20:23;;;;;;;;;;;;;;;11.87;93.09;100975.72;5045794;28;19916;-58
2022/10/16 03:22:48;;;;;;;;;;;;;;;11.87;93.10;100975.72;5048541;28;20460;-59
2022/10/16 03:25:14;;;;;;;;;;;;;;;11.87;92.89;100992.50;5045719;28;20389;-58
2022/10/16 03:27:39;;;;;;;;;;;;;;;11.86;93.45;100993.50;5046853;28;19917;-58
2022/10/16 03:30:04;;;;;;;;;;;;;;;11.86;93.09;101006.81;5045505;28;19921;-58
2022/10/16 03:32:30;;;;;;;;;;;;;;;11.87;93.05;101007.66;5048172;28;20007;-58
2022/10/16 03:34:56;;;;;;;;;;;;;;;11.86;93.20;101011.31;5047055;28;20032;-57
2022/10/16 03:37:21;;;;;;;;;;;;;;;11.84;93.21;101008.78;5049687;28;19917;-57
2022/10/16 03:39:46;;;;;;;;;;;;;;;11.84;93.39;100997.31;5046357;28;19920;-58
2022/10/16 03:42:12;;;;;;;;;;;;;;;11.84;93.62;100992.00;5043093;28;20309;-58
2022/10/16 03:44:37;;;;;;;;;;;;;;;11.83;93.69;100988.50;5048935;28;19920;-58
2022/10/16 03:47:02;;;;;;;;;;;;;;;11.80;93.68;100988.88;5049134;28;19928;-57
2022/10/16 03:49:27;;;;;;;;;;;;;;;11.81;93.64;101008.31;5048256;28;19968;-56
2022/10/16 03:51:53;;;;;;;;;;;;;;;11.79;93.97;101000.50;5047943;28;19986;-58
2022/10/16 03:54:18;;;;;;;;;;;;;;;11.78;93.92;101009.50;5043927;28;19956;-57
2022/10/16 03:56:43;;;;;;;;;;;;;;;11.77;93.82;101007.81;5047744;28;19991;-58
2022/10/16 03:59:08;;;;;;;;;;;;;;;11.76;94.12;101006.97;5041957;28;19948;-58
2022/10/16 04:01:33;;;;;;;;;;;;;;;11.77;94.38;101013.13;5044112;28;19966;-58
2022/10/16 04:03:59;;;;;;;;;;;;;;;11.76;94.42;101022.13;5043917;28;19959;-58
2022/10/16 04:06:24;;;;;;;;;;;;;;;11.80;94.14;101015.47;5042101;28;20055;-58
2022/10/16 04:08:49;;;;;;;;;;;;;;;11.77;94.33;101015.78;5043669;28;19913;-58
2022/10/16 04:11:14;;;;;;;;;;;;;;;11.77;94.39;101018.44;5047082;28;19917;-58
2022/10/16 04:13:39;;;;;;;;;;;;;;;11.78;94.48;101022.81;5044792;28;19913;-58
2022/10/16 04:16:05;;;;;;;;;;;;;;;11.79;94.74;101021.81;5048603;28;19963;-58
2022/10/16 04:18:30;;;;;;;;;;;;;;;11.79;94.67;101027.94;5042662;28;19924;-57
2022/10/16 04:20:55;;;;;;;;;;;;;;;11.83;94.79;101027.59;5042880;28;19921;-58
2022/10/16 04:23:22;;;;;;;;;;;;;;;11.84;94.75;101034.56;5046512;28;20312;-57
2022/10/16 04:25:48;;;;;;;;;;;;;;;11.81;95.06;101021.63;5047684;28;20384;-59
2022/10/16 04:28:14;;;;;;;;;;;;;;;11.86;94.71;101029.94;5038893;28;21895;-57
2022/10/16 04:30:39;;;;;;;;;;;;;;;11.86;94.83;101033.44;5044301;28;20295;-58
2022/10/16 04:33:04;;;;;;;;;;;;;;;11.86;94.74;101037.91;5026825;28;19928;-58
2022/10/16 04:35:30;;;;;;;;;;;;;;;11.88;95.02;101027.94;5047245;28;19923;-58
2022/10/16 04:37:56;;;;;;;;;;;;;;;11.87;95.16;101032.41;5047864;28;20022;-58
2022/10/16 04:40:22;;;;;;;;;;;;;;;11.86;94.94;101035.25;5052456;28;19916;-58
2022/10/16 04:42:47;;;;;;;;;;;;;;;11.84;94.95;101045.22;5051305;28;20376;-58
2022/10/16 04:45:12;;;;;;;;;;;;;;;11.81;94.85;101045.56;5049105;28;19920;-58
2022/10/16 04:47:37;;;;;;;;;;;;;;;11.80;94.82;101047.41;5046948;28;20004;-58
2022/10/16 04:50:03;;;;;;;;;;;;;;;11.77;94.84;101045.06;5045756;28;19924;-58
2022/10/16 04:52:28;;;;;;;;;;;;;;;11.75;94.62;101049.72;5053653;28;19917;-57
2022/10/16 04:54:54;;;;;;;;;;;;;;;11.75;95.11;101060.38;5053807;28;19917;-58
2022/10/16 04:57:19;;;;;;;;;;;;;;;11.73;95.05;101057.88;5045922;28;19919;-57
2022/10/16 04:59:44;;;;;;;;;;;;;;;11.73;95.06;101065.03;5045925;28;19931;-57
2022/10/16 05:02:09;;;;;;;;;;;;;;;11.71;94.99;101077.69;5044729;28;19996;-57
2022/10/16 05:04:34;;;;;;;;;;;;;;;11.69;95.33;101077.03;5046022;28;19921;-57
2022/10/16 05:07:00;;;;;;;;;;;;;;;11.67;95.15;101073.72;5049368;28;19956;-57
2022/10/16 05:09:25;;;;;;;;;;;;;;;11.64;95.37;101076.72;5053853;28;19927;-57
2022/10/16 05:11:50;;;;;;;;;;;;;;;11.62;95.26;101062.75;5046512;28;20355;-58
2022/10/16 05:14:15;;;;;;;;;;;;;;;11.61;95.31;101071.75;5046325;28;20003;-57
2022/10/16 05:16:41;;;;;;;;;;;;;;;11.60;95.70;101070.09;5047065;28;20593;-58
2022/10/16 05:19:06;;;;;;;;;;;;;;;11.59;96.00;101079.91;5049169;28;19925;-57
2022/10/16 05:21:31;;;;;;;;;;;;;;;11.60;96.13;101075.41;5051236;28;19920;-57
2022/10/16 05:23:56;;;;;;;;;;;;;;;11.61;95.91;101085.03;5055387;28;20438;-58
2022/10/16 05:26:21;;;;;;;;;;;;;;;11.59;96.08;101098.53;5044333;28;19917;-58
2022/10/16 05:28:46;;;;;;;;;;;;;;;11.57;96.21;101097.03;5045853;28;19927;-58
2022/10/16 05:31:12;;;;;;;;;;;;;;;11.55;96.08;101109.66;5041017;28;20316;-58
2022/10/16 05:33:37;;;;;;;;;;;;;;;11.54;96.02;101113.31;5038709;28;20038;-58
2022/10/16 05:36:03;;;;;;;;;;;;;;;11.51;95.99;101113.66;5038529;28;20590;-58
2022/10/16 05:38:28;;;;;;;;;;;;;;;11.49;96.11;101122.63;5045739;28;19947;-57
2022/10/16 05:40:53;;;;;;;;;;;;;;;11.48;96.51;101120.97;5047873;28;19913;-58
2022/10/16 05:43:19;;;;;;;;;;;;;;;11.47;96.62;101127.28;5048775;28;19955;-60
2022/10/16 05:45:44;;;;;;;;;;;;;;;11.46;96.50;101132.78;5047539;28;19955;-60
2022/10/16 05:48:09;;;;;;;;;;;;;;;11.44;96.49;101126.78;5050046;28;19963;-59
2022/10/16 05:50:34;;;;;;;;;;;;;;;11.44;96.75;101134.78;5033579;28;19952;-60
2022/10/16 05:52:59;;;;;;;;;;;;;;;11.44;97.06;101146.25;5044952;28;19913;-60
2022/10/16 05:55:25;;;;;;;;;;;;;;;11.46;97.22;101146.06;5046187;28;19921;-60
2022/10/16 05:57:50;;;;;;;;;;;;;;;11.46;97.28;101156.72;5041014;28;20124;-60
2022/10/16 06:00:15;;;;;;;;;;;;;;;11.45;97.14;101155.88;5046249;28;19924;-59
2022/10/16 06:02:40;;;;;;;;;;;;;;;11.45;97.21;101155.88;5045893;28;19918;-59
2022/10/16 06:05:06;;;;;;;;;;;;;;;11.47;97.15;101169.00;5050026;28;19926;-60
2022/10/16 06:07:34;;;;;;;;;;;;;;;11.46;97.47;101167.34;5044706;28;19921;-60
2022/10/16 06:09:59;;;;;;;;;;;;;;;11.45;97.21;101161.19;5053268;28;19952;-60
2022/10/16 06:12:24;;;;;;;;;;;;;;;11.45;97.19;101169.19;5048713;28;19952;-59
2022/10/16 06:14:49;;;;;;;;;;;;;;;11.45;97.22;101184.31;5045152;28;19916;-60
2022/10/16 06:17:15;;;;;;;;;;;;;;;11.45;97.08;101178.97;5049840;28;19916;-60
2022/10/16 06:19:40;;;;;;;;;;;;;;;11.45;97.38;101178.97;5045209;28;19967;-60
2022/10/16 06:22:06;;;;;;;;;;;;;;;11.45;97.48;101185.13;5046290;28;19923;-60
2022/10/16 06:24:31;;;;;;;;;;;;;;;11.44;97.52;101183.47;5035267;28;20543;-61
2022/10/16 06:26:56;;;;;;;;;;;;;;;11.44;97.35;101187.97;5042684;28;19920;-60
2022/10/16 06:29:21;;;;;;;;;;;;;;;11.44;97.64;101193.28;5043816;28;19925;-59
2022/10/16 06:31:46;;;;;;;;;;;;;;;11.45;97.58;101195.78;5036715;28;20466;-61
2022/10/16 06:34:12;;;;;;;;;;;;;;;11.46;97.33;101201.91;5035189;28;20364;-61
2022/10/16 06:36:37;;;;;;;;;;;;;;;11.46;98.01;101208.06;5043454;28;20668;-60
2022/10/16 06:39:03;;;;;;;;;;;;;;;11.49;97.97;101218.38;5050095;28;19924;-60
2022/10/16 06:41:28;;;;;;;;;;;;;;;11.50;97.95;101224.53;5045209;28;19925;-60
2022/10/16 06:43:53;;;;;;;;;;;;;;;11.53;98.02;101213.53;5045688;28;19970;-60
2022/10/16 06:46:20;;;;;;;;;;;;;;;11.59;98.06;101228.03;5047376;28;20415;-59
2022/10/16 06:48:46;;;;;;;;;;;;;;;11.63;98.44;101229.34;5045053;28;19984;-60
2022/10/16 06:51:13;;;;;;;;;;;;;;;11.68;98.42;101232.34;5044420;28;19956;-60
2022/10/16 06:53:39;;;;;;;;;;;;;;;11.74;98.56;101234.31;5040183;28;20498;-60
2022/10/16 06:56:18;;;;;;;;;;;;;;;11.80;98.79;101236.31;5037222;28;19920;-60
2022/10/16 06:58:44;;;;;;;;;;;;;;;11.87;98.83;101229.34;5050276;28;19917;-60
2022/10/16 07:01:10;;;;;;;;;;;;;;;11.94;98.91;101229.50;5041863;28;19917;-60
2022/10/16 07:03:39;;;;;;;;;;;;;;;12.00;98.77;101240.28;5041354;28;19924;-60
2022/10/16 07:06:05;;;;;;;;;;;;;;;12.07;98.60;101251.09;5043747;28;20011;-60
2022/10/16 07:08:32;;;;;;;;;;;;;;;12.14;98.66;101248.56;5046952;28;20032;-60
2022/10/16 07:11:04;;;;;;;;;;;;;;;12.21;98.87;101260.22;5044614;28;19925;-60
2022/10/16 07:13:32;;;;;;;;;;;;;;;12.28;98.60;101255.84;5040374;28;19939;-60
2022/10/16 07:15:58;;;;;;;;;;;;;;;12.32;98.47;101260.66;5043976;28;19983;-60
2022/10/16 07:18:26;;;;;;;;;;;;;;;12.36;98.07;101263.81;5046274;28;20373;-61
2022/10/16 07:20:51;;;;;;;;;;;;;;;12.40;98.01;101262.47;5041334;28;19916;-61
2022/10/16 07:23:16;;;;;;;;;;;;;;;12.44;97.53;101282.44;5042742;28;19925;-60
2022/10/16 07:25:42;;;;;;;;;;;;;;;12.48;97.28;101282.94;5040920;28;19917;-60
2022/10/16 07:28:07;;;;;;;;;;;;;;;12.51;97.49;101290.56;5049426;28;19959;-60
2022/10/16 07:30:34;;;;;;;;;;;;;;;12.55;97.09;101290.06;5047050;28;19913;-60
2022/10/16 07:32:59;;;;;;;;;;;;;;;12.58;97.21;101294.22;5051849;28;20458;-59
2022/10/16 07:35:24;;;;;;;;;;;;;;;12.61;97.03;101300.03;5061320;28;19916;-60
2022/10/16 07:37:49;;;;;;;;;;;;;;;12.66;96.82;101307.50;5051551;28;19912;-60
2022/10/16 07:40:15;;;;;;;;;;;;;;;12.72;96.60;101296.13;5048797;28;20369;-60
2022/10/16 07:42:40;;;;;;;;;;;;;;;12.78;96.09;101307.97;5047491;28;19913;-59
2022/10/16 07:45:05;;;;;;;;;;;;;;;12.83;95.92;101309.09;5065117;28;19947;-60
2022/10/16 07:47:31;;;;;;;;;;;;;;;12.90;95.81;101319.88;5051510;28;19913;-61
2022/10/16 07:49:56;;;;;;;;;;;;;;;12.94;95.34;101314.03;5054458;28;19951;-59
2022/10/16 07:52:21;;;;;;;;;;;;;;;13.01;94.99;101332.84;5050181;28;19996;-60
2022/10/16 07:54:46;;;;;;;;;;;;;;;13.06;94.87;101334.97;5050833;28;19914;-60
2022/10/16 07:57:11;;;;;;;;;;;;;;;13.10;94.54;101328.28;5053428;28;19924;-59
2022/10/16 07:59:37;;;;;;;;;;;;;;;13.10;94.04;101326.47;5051211;28;19984;-59
2022/10/16 08:02:02;;;;;;;;;;;;;;;13.10;94.02;101323.78;5055099;28;20383;-59
2022/10/16 08:04:27;;;;;;;;;;;;;;;13.09;93.69;101326.63;5055440;28;20403;-60
2022/10/16 08:06:54;;;;;;;;;;;;;;;13.07;93.54;101342.81;5052945;28;19995;-60
2022/10/16 08:09:19;;;;;;;;;;;;;;;13.09;93.76;101351.47;5053815;28;19912;-60
2022/10/16 08:11:44;;;;;;;;;;;;;;;13.15;93.27;101357.94;5044797;28;19917;-59
2022/10/16 08:14:09;;;;;;;;;;;;;;;13.22;93.59;101366.91;5043319;28;19924;-60
2022/10/16 08:16:34;;;;;;;;;;;;;;;13.29;93.02;101367.88;5041754;28;19931;-60
2022/10/16 08:19:00;;;;;;;;;;;;;;;13.37;93.09;101375.03;5045343;28;19923;-60
2022/10/16 08:21:25;;;;;;;;;;;;;;;13.44;92.68;101375.97;5048672;28;19912;-60
2022/10/16 08:23:50;;;;;;;;;;;;;;;13.51;92.57;101377.75;5050694;28;20411;-60
2022/10/16 08:26:15;;;;;;;;;;;;;;;13.58;92.40;101377.88;5051568;28;19920;-59
2022/10/16 08:28:40;;;;;;;;;;;;;;;13.64;92.22;101371.84;5045050;28;19924;-59
2022/10/16 08:31:06;;;;;;;;;;;;;;;13.70;92.30;101384.47;5043755;28;20023;-60
2022/10/16 08:33:31;;;;;;;;;;;;;;;13.78;92.19;101384.41;5041079;28;19925;-60
2022/10/16 08:35:56;;;;;;;;;;;;;;;13.83;91.37;101390.03;5037450;28;19966;-60
2022/10/16 08:38:21;;;;;;;;;;;;;;;13.88;91.44;101398.38;5043381;28;19986;-60
2022/10/16 08:40:47;;;;;;;;;;;;;;;13.90;90.78;101391.00;5043495;28;20388;-60
2022/10/16 08:43:35;;;;;;;;;;;;;;;13.94;90.46;101396.81;5046986;28;19971;-60
2022/10/16 08:46:06;;;;;;;;;;;;;;;14.00;90.45;101396.09;5044998;28;20019;-60
2022/10/16 08:48:37;;;;;;;;;;;;;;;14.03;89.73;101410.94;5045975;28;19920;-60
2022/10/16 08:51:03;;;;;;;;;;;;;;;14.06;89.61;101406.06;5039462;28;19921;-60
2022/10/16 08:53:38;;;;;;;;;;;;;;;14.14;89.01;101413.16;5053879;28;19921;-60
2022/10/16 08:56:03;;;;;;;;;;;;;;;14.23;89.18;101420.94;5050116;28;19927;-60
2022/10/16 08:58:29;;;;;;;;;;;;;;;14.29;88.60;101427.41;5042084;28;19929;-59
2022/10/16 09:01:00;;;;;;;;;;;;;;;14.33;88.54;101422.53;5038161;28;19996;-59
2022/10/16 09:03:44;;;;;;;;;;;;;;;14.37;88.04;101435.34;5042073;28;19938;-60
2022/10/16 09:06:09;;;;;;;;;;;;;;;14.41;87.17;101423.28;5047394;28;19923;-60
2022/10/16 09:08:51;;;;;;;;;;;;;;;14.51;87.89;101423.91;5051224;28;19917;-60
2022/10/16 09:11:35;;;;;;;;;;;;;;;14.58;87.13;101434.69;5049883;28;19916;-61
2022/10/16 09:14:07;;;;;;;;;;;;;;;14.61;86.47;101426.28;5050862;28;20558;-60
2022/10/16 09:16:39;;;;;;;;;;;;;;;14.67;86.02;101427.41;5047649;28;20382;-60
2022/10/16 09:19:12;;;;;;;;;;;;;;;14.75;86.29;101435.34;5047722;28;20483;-60
2022/10/16 09:21:43;;;;;;;;;;;;;;;14.81;85.72;101442.63;5053827;28;19999;-60
2022/10/16 09:24:11;;;;;;;;;;;;;;;14.87;85.17;101450.75;5053027;28;20062;-61
2022/10/16 09:26:36;;;;;;;;;;;;;;;14.95;84.63;101455.19;5031446;28;19942;-60
2022/10/16 09:29:02;;;;;;;;;;;;;;;14.94;84.09;101448.16;5048531;28;20015;-60
2022/10/16 09:31:27;;;;;;;;;;;;;;;14.98;84.53;101444.09;5043465;28;20396;-60
2022/10/16 09:33:58;;;;;;;;;;;;;;;15.01;83.97;101448.25;5045713;28;20015;-61
2022/10/16 09:36:23;;;;;;;;;;;;;;;15.07;84.14;101447.53;5040864;28;19916;-59
2022/10/16 09:38:49;;;;;;;;;;;;;;;15.12;84.62;101447.81;5049292;28;19920;-61
2022/10/16 09:41:19;;;;;;;;;;;;;;;15.18;84.33;101458.59;5045968;28;19920;-60
2022/10/16 09:43:51;;;;;;;;;;;;;;;15.21;83.55;101453.88;5051099;28;20539;-60
2022/10/16 09:46:21;;;;;;;;;;;;;;;15.24;83.32;101456.19;5037781;28;19916;-59
2022/10/16 09:48:47;;;;;;;;;;;;;;;15.25;83.41;101456.00;5039764;28;19955;-61
2022/10/16 09:51:19;;;;;;;;;;;;;;;15.28;82.86;101462.81;5042107;28;19924;-60
2022/10/16 09:53:45;;;;;;;;;;;;;;;15.31;82.75;101468.63;5043960;28;20410;-61
2022/10/16 09:56:13;;;;;;;;;;;;;;;15.35;82.47;101466.44;5045511;28;20387;-60
2022/10/16 09:58:41;;;;;;;;;;;;;;;15.38;82.06;101468.72;5046348;28;19924;-60
2022/10/16 10:01:12;;;;;;;;;;;;;;;15.42;82.33;101468.16;5040361;28;19927;-60
2022/10/16 10:03:39;;;;;;;;;;;;;;;15.57;82.49;101478.00;5042470;28;20058;-59
2022/10/16 10:06:23;;;;;;;;;;;;;;;15.62;82.41;101462.25;5037330;28;19925;-60
2022/10/16 10:08:59;;;;;;;;;;;;;;;15.67;82.23;101473.25;5041820;28;20380;-59
2022/10/16 10:11:41;;;;;;;;;;;;;;;15.76;82.38;101472.09;5046311;28;19931;-59
2022/10/16 10:14:14;;;;;;;;;;;;;;;15.71;80.20;101472.66;5045675;28;19920;-60
2022/10/16 10:16:39;;;;;;;;;;;;;;;15.73;79.98;101478.66;5047625;28;19917;-60
2022/10/16 10:19:13;;;;;;;;;;;;;;;15.78;78.81;101473.56;5049092;28;20007;-61
2022/10/16 10:21:38;;;;;;;;;;;;;;;15.80;79.20;101476.88;5047337;28;19924;-60
2022/10/16 10:24:04;;;;;;;;;;;;;;;15.84;78.91;101480.00;5044695;28;19955;-60
2022/10/16 10:26:31;;;;;;;;;;;;;;;15.89;78.38;101487.47;5043525;28;20010;-60
2022/10/16 10:28:56;;;;;;;;;;;;;;;15.95;77.53;101490.25;5049609;28;19917;-60
2022/10/16 10:31:26;;;;;;;;;;;;;;;16.05;77.35;101493.44;5053374;28;19955;-60
2022/10/16 10:33:54;;;;;;;;;;;;;;;16.11;77.39;101489.97;5055358;28;19936;-61
2022/10/16 10:36:20;;;;;;;;;;;;;;;16.23;77.05;101502.91;5049203;28;19917;-60
2022/10/16 10:38:48;;;;;;;;;;;;;;;16.28;76.56;101495.09;5048658;28;19954;-60
2022/10/16 10:41:32;;;;;;;;;;;;;;;16.37;76.17;101496.63;5051495;28;19967;-60
2022/10/16 10:44:07;;;;;;;;;;;;;;;16.38;74.62;101509.81;5050302;28;20028;-60
2022/10/16 10:46:50;;;;;;;;;;;;;;;16.32;72.81;101501.72;5045176;28;19931;-60
2022/10/16 10:49:30;;;;;;;;;;;;;;;16.23;72.51;101503.72;5040426;28;19924;-60
2022/10/16 10:52:01;;;;;;;;;;;;;;;16.25;72.14;101499.00;5046527;28;19917;-60
2022/10/16 10:54:40;;;;;;;;;;;;;;;16.35;72.71;101491.44;5053318;28;19928;-60
2022/10/16 10:57:21;;;;;;;;;;;;;;;16.51;73.51;101511.00;5051540;28;19925;-60
2022/10/16 11:00:02;;;;;;;;;;;;;;;16.59;72.22;101506.31;5050332;28;20039;-60
2022/10/16 11:02:37;;;;;;;;;;;;;;;16.59;71.60;101505.47;5042579;28;20396;-60
2022/10/16 11:05:05;;;;;;;;;;;;;;;16.65;71.47;101520.78;5043049;28;19925;-60
2022/10/16 11:07:34;;;;;;;;;;;;;;;16.62;71.13;101519.31;5044954;28;19932;-60
2022/10/16 11:10:03;;;;;;;;;;;;;;;16.51;70.68;101514.50;5051758;28;19920;-60
2022/10/16 11:12:31;;;;;;;;;;;;;;;16.45;71.31;101519.78;5054408;28;19921;-60
2022/10/16 11:15:12;;;;;;;;;;;;;;;16.35;72.23;101515.56;5053343;28;19948;-60
2022/10/16 11:17:39;;;;;;;;;;;;;;;16.27;71.84;101518.41;5053830;28;19920;-60
2022/10/16 11:20:18;;;;;;;;;;;;;;;16.22;72.18;101520.00;5050310;28;19932;-59
2022/10/16 11:22:50;;;;;;;;;;;;;;;16.28;72.73;101519.22;5049762;28;20014;-60
2022/10/16 11:25:21;;;;;;;;;;;;;;;16.33;71.53;101522.97;5051982;28;19927;-58
2022/10/16 11:27:58;;;;;;;;;;;;;;;16.28;70.91;101521.91;5044660;28;19913;-61
2022/10/16 11:30:25;;;;;;;;;;;;;;;16.23;71.03;101514.44;5046878;28;19924;-60
2022/10/16 11:32:56;;;;;;;;;;;;;;;16.29;71.00;101521.72;5050927;28;19917;-59
2022/10/16 11:35:32;;;;;;;;;;;;;;;16.40;71.78;101518.50;5053343;28;19943;-60
2022/10/16 11:37:58;;;;;;;;;;;;;;;16.45;72.11;101514.41;5046039;28;20011;-60
2022/10/16 11:40:33;;;;;;;;;;;;;;;16.56;72.72;101522.78;5047676;28;19919;-60
2022/10/16 11:43:02;;;;;;;;;;;;;;;16.69;73.04;101528.28;5042215;28;20312;-60
2022/10/16 11:45:38;;;;;;;;;;;;;;;16.81;71.71;101541.19;5046013;28;20530;-60
2022/10/16 11:48:14;;;;;;;;;;;;;;;16.81;70.66;101543.88;5055244;28;19936;-59
2022/10/16 11:50:45;;;;;;;;;;;;;;;16.70;70.60;101543.34;5044231;28;19921;-61
2022/10/16 11:53:18;;;;;;;;;;;;;;;16.64;69.92;101536.06;5051858;28;19920;-60
2022/10/16 11:55:44;;;;;;;;;;;;;;;16.59;69.71;101543.03;5040195;28;19928;-60
2022/10/16 11:58:17;;;;;;;;;;;;;;;16.58;69.83;101541.38;5043528;28;19923;-60
2022/10/16 12:00:46;;;;;;;;;;;;;;;16.54;70.38;101538.25;5044345;28;19916;-60
2022/10/16 12:03:20;;;;;;;;;;;;;;;16.50;70.01;101538.81;5050394;28;19919;-60
2022/10/16 12:05:57;;;;;;;;;;;;;;;16.48;69.80;101536.34;5048515;28;20315;-60
2022/10/16 12:08:22;;;;;;;;;;;;;;;16.50;69.97;101544.19;5045649;28;20011;-61
2022/10/16 12:10:48;;;;;;;;;;;;;;;16.50;69.61;101538.81;5045473;28;20007;-59
2022/10/16 12:13:30;;;;;;;;;;;;;;;16.56;69.81;101532.69;5048181;28;20026;-59
2022/10/16 12:16:13;;;;;;;;;;;;;;;16.61;69.98;101541.81;5055556;28;20569;-60
2022/10/16 12:18:45;;;;;;;;;;;;;;;16.71;70.58;101554.91;5049064;28;20485;-59
2022/10/16 12:21:13;;;;;;;;;;;;;;;16.78;70.12;101550.44;5048645;28;19920;-61
2022/10/16 12:23:49;;;;;;;;;;;;;;;16.87;69.81;101551.97;5044657;28;19974;-60
2022/10/16 12:26:23;;;;;;;;;;;;;;;17.03;70.00;101548.97;5043576;28;19921;-61
2022/10/16 12:28:51;;;;;;;;;;;;;;;17.11;70.56;101560.59;5047966;28;19920;-60
2022/10/16 12:31:16;;;;;;;;;;;;;;;17.21;70.68;101550.34;5047466;28;20373;-60
2022/10/16 12:33:51;;;;;;;;;;;;;;;17.31;70.43;101529.31;5045586;28;19924;-58
2022/10/16 12:36:27;;;;;;;;;;;;;;;17.58;69.76;101547.22;5047196;28;19921;-58
2022/10/16 12:38:53;;;;;;;;;;;;;;;17.80;69.60;101547.16;5043451;28;19970;-59